Latest Weather Observations for Newman Airport

IDW60801

Issued at 8:32 pm WST Thursday 26 May 2016 (issued every 30 minutes, with the page automatically refreshed every 10 minutes)

About weather observations | Map of weather stations | Latest weather observations for WA | Other Formats
Station Details ID: 007176 Name: NEWMAN AERO Lat: -23.42 Lon: 119.80 Height: 524.0 m
Data from the previous 72 hours. | See also: Recent months at Newman Airport
Date/Time
WST
Temp
°C
App
Temp
°C
Dew
Point
Rel
Hum
%
Delta-T
°C
Wind Press
QNH
hPa
Press
MSL
hPa
Rain
since 9 am
mm
Dir
 
Spd
km/h
Gust
km/h
Spd
kts
Gust
kts
26/08:30pm 21.2 19.6 11.5 54 5.5 S 11 13 6 7 1018.7 1016.8 0.0
26/08:00pm 21.7 20.1 11.7 53 5.7 S 11 15 6 8 1018.6 1016.7 0.0
26/07:30pm 22.4 21.0 12.1 52 6.0 S 11 15 6 8 1018.5 1016.6 0.0
26/07:00pm 23.3 21.6 12.6 51 6.3 S 13 17 7 9 1018.2 1016.3 0.0
26/06:30pm 23.7 22.7 13.3 52 6.2 SSW 11 15 6 8 1017.8 1015.9 0.0
26/06:00pm 24.4 23.4 13.3 50 6.6 SSW 11 15 6 8 1017.4 1015.4 0.0
26/05:30pm 25.2 24.9 13.4 48 7.1 SW 7 9 4 5 1016.8 1014.9 0.0
26/05:00pm 26.3 25.6 13.1 44 7.9 SSW 9 15 5 8 1016.8 1014.9 0.0
26/04:30pm 27.0 26.1 13.7 44 8.1 SW 11 15 6 8 1016.4 1014.5 0.0
26/04:00pm 26.8 25.1 13.5 44 8.0 S 15 22 8 12 1016.5 1014.6 0.0
26/03:30pm 27.0 26.3 14.4 46 7.7 S 11 15 6 8 1016.5 1014.6 0.0
26/03:00pm 27.5 26.6 14.8 45 7.8 SSW 13 17 7 9 1016.4 1014.5 0.0
26/02:30pm 27.2 25.6 14.9 47 7.6 SSW 17 28 9 15 1016.4 1014.5 0.0
26/02:00pm 26.9 25.3 15.0 48 7.3 SW 17 28 9 15 1016.5 1014.6 0.0
26/01:30pm 27.1 25.4 15.8 50 7.1 SSW 19 26 10 14 1016.7 1014.8 0.0
26/01:00pm 27.8 26.4 15.5 47 7.7 SSW 17 26 9 14 1016.8 1014.9 0.0
26/12:30pm 26.5 25.2 15.8 51 6.7 SSW 17 26 9 14 1016.9 1015.0 0.0
26/12:00pm 26.1 25.7 16.1 54 6.3 SSW 13 20 7 11 1017.4 1015.4 0.0
26/11:30am 25.6 24.6 16.5 57 5.7 SSW 17 26 9 14 1017.9 1016.0 0.0
26/11:00am 25.5 25.3 16.6 58 5.6 SSW 13 22 7 12 1018.1 1016.2 0.0
26/10:30am 24.8 24.5 16.5 60 5.2 SSW 13 19 7 10 1018.4 1016.5 0.0
26/10:00am 23.5 23.6 16.5 65 4.4 SSW 11 20 6 11 1018.5 1016.6 0.0
26/09:30am 23.0 22.7 16.5 67 4.1 SSW 13 22 7 12 1018.7 1016.8 0.0
26/09:00am 22.0 21.8 16.7 72 3.3 SW 13 19 7 10 1018.6 1016.7 0.0
26/08:56am 21.6 21.0 16.6 73 3.1 SW 15 20 8 11 1018.6 1016.7 0.0
26/08:30am 21.0 21.0 16.2 74 3.0 SW 11 15 6 8 1018.4 1016.5 0.0
26/08:00am 19.7 20.6 16.2 80 2.1 SW 6 9 3 5 1017.9 1016.0 0.0
26/07:30am 18.6 20.5 15.7 83 1.8 CALM 0 7 0 4 1017.5 1015.5 0.0
26/07:00am 17.7 17.2 14.8 83 1.7 SSW 11 15 6 8 1017.2 1015.3 0.0
26/06:43am 16.7 14.7 11.6 72 2.8 SW 13 17 7 9 1017.2 1015.3 0.0
26/06:30am 16.7 14.6 11.2 70 3.0 SW 13 17 7 9 1017.0 1015.1 0.0
26/06:00am 16.4 14.7 10.0 66 3.5 SW 9 13 5 7 1016.8 1014.9 0.0
26/05:30am 16.2 14.2 8.7 61 3.9 WSW 9 11 5 6 1016.4 1014.5 0.0
26/05:00am 16.2 14.3 7.4 56 4.5 WSW 7 9 4 5 1016.1 1014.2 0.0
26/04:30am 16.6 14.2 7.0 53 4.9 WSW 9 11 5 6 1015.9 1013.9 0.0
26/04:00am 16.5 13.7 6.9 53 4.9 SW 11 13 6 7 1015.6 1013.6 0.0
26/03:30am 17.0 14.6 6.8 51 5.2 WSW 9 11 5 6 1015.5 1013.5 0.0
26/03:00am 17.5 14.3 7.0 50 5.4 SW 13 17 7 9 1015.5 1013.5 0.0
26/02:30am 17.4 14.4 7.5 52 5.1 SW 13 13 7 7 1015.5 1013.5 0.0
26/02:00am 17.1 15.3 8.0 55 4.7 SW 7 7 4 4 1015.4 1013.4 0.0
26/01:30am 17.5 15.9 7.8 53 5.1 SW 6 7 3 4 1015.4 1013.4 0.0
26/01:00am 17.5 15.4 8.1 54 4.9 SW 9 9 5 5 1015.5 1013.5 0.0
26/12:30am 17.6 17.3 8.5 55 4.8 CALM 0 7 0 4 1015.4 1013.4 0.0
26/12:00am 18.1 17.8 8.7 54 5.0 CALM 0 0 0 0 1015.2 1013.3 0.0
 
Date/Time
WST
Temp
°C
App
Temp
°C
Dew
Point
Rel
Hum
%
Delta-T
°C
Wind Press
QNH
hPa
Press
MSL
hPa
Rain
since 9 am
mm
Dir
 
Spd
km/h
Gust
km/h
Spd
kts
Gust
kts
25/11:30pm 18.4 17.0 8.7 53 5.2 N 6 6 3 3 1015.4 1013.4 0.0
25/11:00pm 18.9 17.6 9.1 53 5.3 N 6 7 3 4 1015.5 1013.5 0.0
25/10:30pm 19.8 18.4 9.4 51 5.7 N 7 7 4 4 1015.6 1013.6 0.0
25/10:00pm 20.1 19.9 9.1 49 6.0 CALM 0 0 0 0 1015.8 1013.8 0.0
25/09:30pm 21.2 20.6 9.1 46 6.6 N 2 6 1 3 1015.8 1013.8 0.0
25/09:00pm 22.4 21.0 9.6 44 7.1 N 7 7 4 4 1015.7 1013.7 0.0
25/08:30pm 22.8 21.9 9.2 42 7.5 WNW 4 7 2 4 1015.5 1013.5 0.0
25/08:00pm 23.3 21.8 9.0 40 7.9 SW 7 9 4 5 1015.1 1013.2 0.0
25/07:30pm 24.5 22.9 8.9 37 8.6 SW 7 9 4 5 1014.9 1013.0 0.0
25/07:00pm 25.6 24.1 9.0 35 9.2 SW 7 11 4 6 1014.5 1012.6 0.0
25/06:30pm 26.4 24.4 8.8 33 9.8 WSW 9 13 5 7 1014.0 1012.0 0.0
25/06:00pm 27.3 25.3 8.7 31 10.4 SW 9 11 5 6 1013.6 1011.6 0.0
25/05:30pm 28.5 25.7 8.7 29 11.1 SW 13 19 7 10 1013.2 1011.3 0.0
25/05:00pm 29.8 26.7 8.8 27 11.9 SW 15 22 8 12 1012.9 1011.0 0.0
25/04:30pm 31.3 29.3 10.1 27 12.3 SW 11 17 6 9 1012.6 1010.6 0.0
25/04:00pm 31.6 29.1 10.9 28 12.2 WNW 15 22 8 12 1012.4 1010.4 0.0
25/03:30pm 31.6 29.3 10.3 27 12.5 WNW 13 28 7 15 1012.4 1010.4 0.0
25/03:00pm 31.7 28.6 10.4 27 12.5 W 17 26 9 14 1012.4 1010.4 0.0
25/02:30pm 31.7 29.6 11.0 28 12.2 WNW 13 24 7 13 1012.6 1010.6 0.0
25/02:00pm 31.3 29.0 10.6 28 12.2 NW 13 24 7 13 1012.6 1010.6 0.0
25/01:30pm 30.7 27.0 9.6 27 12.2 W 19 30 10 16 1012.8 1010.9 0.0
25/01:00pm 30.2 27.2 10.7 30 11.4 NW 17 26 9 14 1013.4 1011.4 0.0
25/12:30pm 29.7 26.9 11.2 31 10.9 NW 17 28 9 15 1013.8 1011.8 0.0
25/12:00pm 29.6 26.5 11.6 33 10.7 NW 19 32 10 17 1014.1 1012.1 0.0
25/11:30am 28.4 25.4 11.9 36 9.8 NW 19 28 10 15 1014.6 1012.7 0.0
25/11:00am 28.4 25.4 11.9 36 9.8 NNW 19 43 10 23 1014.9 1013.0 0.0
25/10:30am 26.9 25.5 13.3 43 8.2 W 13 24 7 13 1015.2 1013.3 0.0
25/10:00am 26.0 24.6 13.5 46 7.5 NW 13 20 7 11 1015.5 1013.5 0.0
25/09:30am 25.1 24.3 13.9 49 6.8 W 11 15 6 8 1015.7 1013.7 0.0
25/09:00am 23.8 22.7 14.2 55 5.8 W 13 17 7 9 1015.7 1013.7 0.0
25/08:30am 22.9 21.7 13.9 57 5.4 W 13 19 7 10 1015.6 1013.6 0.0
25/08:00am 21.3 20.8 12.7 58 5.0 WNW 7 9 4 5 1015.6 1013.6 0.0
25/07:30am 19.8 19.3 12.1 61 4.4 W 6 7 3 4 1015.4 1013.4 0.0
25/07:00am 17.0 15.7 11.3 69 3.2 WSW 9 11 5 6 1015.1 1013.2 0.0
25/06:30am 14.8 13.6 10.2 74 2.5 WSW 7 9 4 5 1014.9 1013.0 0.0
25/06:00am 15.1 15.2 10.1 72 2.7 CALM 0 0 0 0 1014.6 1012.7 0.0
25/05:30am 15.7 15.8 10.2 70 3.0 CALM 0 0 0 0 1014.3 1012.3 0.0
25/05:00am 16.1 16.2 10.2 68 3.2 CALM 0 0 0 0 1014.0 1012.0 0.0
25/04:30am 15.7 15.8 10.0 69 3.1 CALM 0 0 0 0 1013.8 1011.8 0.0
25/04:00am 16.5 16.7 10.4 67 3.3 CALM 0 0 0 0 1013.8 1011.8 0.0
25/03:30am 16.8 16.3 10.6 67 3.4 WSW 4 6 2 3 1013.9 1011.9 0.0
25/03:00am 17.5 16.7 11.1 66 3.5 NNW 6 7 3 4 1013.9 1011.9 0.0
25/02:30am 17.9 18.2 11.0 64 3.8 CALM 0 0 0 0 1014.0 1012.0 0.0
25/02:00am 18.2 17.1 10.8 62 4.1 SSW 7 7 4 4 1014.3 1012.3 0.0
25/01:30am 18.9 18.5 11.0 60 4.4 SSW 4 7 2 4 1014.5 1012.6 0.0
25/01:00am 20.2 18.9 11.4 57 5.0 W 9 11 5 6 1014.6 1012.7 0.0
25/12:30am 21.5 20.0 11.8 54 5.6 NW 11 13 6 7 1014.7 1012.8 0.0
25/12:00am 22.0 20.1 11.7 52 5.9 NW 13 17 7 9 1014.9 1013.0 0.0
 
Date/Time
WST
Temp
°C
App
Temp
°C
Dew
Point
Rel
Hum
%
Delta-T
°C
Wind Press
QNH
hPa
Press
MSL
hPa
Rain
since 9 am
mm
Dir
 
Spd
km/h
Gust
km/h
Spd
kts
Gust
kts
24/11:30pm 22.0 20.0 11.4 51 6.0 NW 13 15 7 8 1014.8 1012.9 0.0
24/11:00pm 21.7 20.4 11.4 52 5.9 NW 9 13 5 7 1014.9 1013.0 0.0
24/10:30pm 21.5 20.1 10.9 51 6.0 NW 9 11 5 6 1015.1 1013.2 0.0
24/10:00pm 21.7 20.3 10.8 50 6.1 NW 9 11 5 6 1015.4 1013.4 0.0
24/09:30pm 21.9 20.4 10.7 49 6.3 NW 9 9 5 5 1015.5 1013.5 0.0
24/09:00pm 22.6 20.7 10.4 46 6.9 NNW 11 13 6 7 1015.4 1013.4 0.0
24/08:30pm 22.6 21.1 10.4 46 6.9 NNW 9 13 5 7 1015.4 1013.4 0.0
24/08:00pm 23.0 21.7 10.1 44 7.2 NNW 7 9 4 5 1015.5 1013.5 0.0
24/07:30pm 23.9 22.4 10.6 43 7.5 NNW 9 11 5 6 1015.0 1013.1 0.0
24/07:00pm 24.4 22.8 10.3 41 8.0 N 9 11 5 6 1014.6 1012.7 0.0
24/06:30pm 25.0 23.4 10.1 39 8.4 N 9 13 5 7 1014.2 1012.2 0.0
24/06:00pm 25.9 23.5 10.1 37 9.0 N 13 15 7 8 1013.9 1011.9 0.0
24/05:30pm 26.7 24.7 10.0 35 9.5 N 11 17 6 9 1013.9 1011.9 0.0
24/05:00pm 27.8 24.6 10.1 33 10.2 NNW 17 20 9 11 1013.9 1011.9 0.0
24/04:30pm 28.5 26.4 9.7 31 10.7 NW 11 20 6 11 1013.9 1011.9 0.0
24/04:00pm 28.6 26.6 10.3 32 10.6 NW 11 19 6 10 1014.0 1012.0 0.0
24/03:30pm 28.6 26.5 9.8 31 10.8 NW 11 17 6 9 1014.0 1012.0 0.0
24/03:00pm 29.1 27.0 9.8 30 11.1 W 11 17 6 9 1014.0 1012.0 0.0
24/02:30pm 28.6 25.6 10.8 33 10.4 NW 17 28 9 15 1014.2 1012.2 0.0
24/02:00pm 28.0 25.0 10.7 34 10.0 NNW 17 28 9 15 1014.4 1012.5 0.0
24/01:30pm 27.9 25.4 11.0 35 9.8 NNW 15 24 8 13 1014.7 1012.8 0.0
24/01:00pm 28.5 25.6 11.1 34 10.2 NNW 17 26 9 14 1015.1 1013.2 0.0
24/12:30pm 27.5 24.5 10.7 35 9.7 NW 17 28 9 15 1015.6 1013.6 0.0
24/12:00pm 26.9 24.7 12.2 40 8.7 NNW 15 28 8 15 1016.0 1014.0 0.0
24/11:30am 26.6 23.8 12.6 42 8.3 N 19 28 10 15 1016.6 1014.7 0.0
24/11:00am 25.7 22.8 12.2 43 7.9 NNW 19 26 10 14 1017.1 1015.2 0.0
24/10:30am 24.8 22.8 14.0 51 6.5 NW 17 24 9 13 1017.5 1015.5 0.0
24/10:00am 24.0 22.7 14.7 56 5.6 NW 15 22 8 12 1017.9 1016.0 0.0
24/09:30am 23.4 21.7 14.7 58 5.3 NW 17 28 9 15 1017.9 1016.0 0.0
24/09:00am 22.6 21.0 15.0 62 4.6 NW 17 26 9 14 1017.9 1016.0 0.0
24/08:30am 20.5 20.0 12.5 60 4.6 WSW 7 11 4 6 1017.9 1016.0 0.0
24/08:00am 18.4 17.1 10.0 58 4.6 SW 7 9 4 5 1017.9 1016.0 0.0
24/07:30am 15.9 15.5 8.2 60 4.0 CALM 0 0 0 0 1017.5 1015.5 0.0
24/07:00am 12.4 10.3 6.5 67 2.9 SSW 7 9 4 5 1017.1 1015.2 0.0
24/06:30am 12.5 11.7 6.3 66 3.0 CALM 0 2 0 1 1016.7 1014.8 0.0
24/06:00am 13.1 11.2 6.5 64 3.2 NNE 6 9 3 5 1016.6 1014.7 0.0
24/05:30am 13.3 10.7 5.9 61 3.6 NE 9 11 5 6 1016.3 1014.4 0.0
24/05:00am 12.6 10.3 5.5 62 3.4 NE 7 9 4 5 1016.3 1014.4 0.0
24/04:30am 12.9 10.7 5.3 60 3.6 NE 6 7 3 4 1016.3 1014.4 0.0
24/04:00am 12.8 11.7 5.2 60 3.6 CALM 0 0 0 0 1016.5 1014.6 0.0
24/03:30am 11.9 10.8 4.9 62 3.3 CALM 0 0 0 0 1016.5 1014.6 0.0
24/03:00am 12.5 11.4 5.0 60 3.6 CALM 0 0 0 0 1016.6 1014.7 0.0
24/02:30am 13.3 12.3 5.5 59 3.8 CALM 0 0 0 0 1016.5 1014.6 0.0
24/02:00am 12.9 10.6 4.8 58 3.8 SW 6 7 3 4 1016.6 1014.7 0.0
24/01:30am 12.9 10.4 4.8 58 3.8 SW 7 9 4 5 1017.0 1015.1 0.0
24/01:00am 13.0 10.6 5.2 59 3.7 WSW 7 9 4 5 1017.0 1015.1 0.0
24/12:30am 13.5 11.1 5.4 58 3.9 SSW 7 9 4 5 1017.1 1015.2 0.0
24/12:00am 13.9 11.1 5.3 56 4.1 SW 9 9 5 5 1017.2 1015.3 0.0
 
Date/Time
WST
Temp
°C
App
Temp
°C
Dew
Point
Rel
Hum
%
Delta-T
°C
Wind Press
QNH
hPa
Press
MSL
hPa
Rain
since 9 am
mm
Dir
 
Spd
km/h
Gust
km/h
Spd
kts
Gust
kts
23/11:30pm 14.5 12.3 5.3 54 4.5 SW 6 7 3 4 1017.5 1015.5 0.0
23/11:00pm 14.4 12.2 5.5 55 4.3 W 6 7 3 4 1017.7 1015.7 0.0
23/10:30pm 15.4 14.4 5.6 52 4.8 CALM 0 0 0 0 1017.7 1015.7 0.0
23/10:00pm 17.3 15.0 5.9 47 5.7 ENE 7 9 4 5 1017.6 1015.6 0.0
23/09:30pm 16.9 15.2 5.8 48 5.5 NE 4 7 2 4 1017.6 1015.6 0.0
23/09:00pm 16.9 15.9 5.8 48 5.5 CALM 0 0 0 0 1017.8 1015.9 0.0

Other Formats:

Comma delimited format used in spreadsheet applications
http://www.bom.gov.au/fwo/IDW60801/IDW60801.94317.axf

JavaScript Object Notation format (JSON) in row-major order
http://www.bom.gov.au/fwo/IDW60801/IDW60801.94317.json